x

Culdrose (03809) Weather Station

7:50pm - Thu 18th Jan 2018 All times are GMT.

  • Wind
    12mph
  • Air Temp 43°f
  • Sea Pressure 1011mb
  • Culdrose
  • Culdrose

More Historic Weather Station data

Upgrade to MSW Pro to gain access to the past 30 days of data for over 8000 Wavebouys and Weather Stations around the globe.

Join

Comparision Forecast

View Surf forecast
   
Thu 01/18 7:50pm 12
mph
1011mb 43f
6:50pm 12
mph
1010mb 41f
5:50pm 17 33 mph 1010mb 43f
4:50pm 16 28 mph 1009mb 45f
3:50pm 18 31 mph 1008mb 46f
2:50pm 20 35 mph 1008mb 45f
1:50pm 16 31 mph 1007mb 46f
12:50pm 17 31 mph 1007mb 46f
11:50am 16 30 mph 1007mb 46f
10:50am 15
mph
1007mb 48f
10:09am 15
mph
1007mb 46f
8:50am 14
mph
1006mb 48f
7:50am 14
mph
1006mb 48f
6:50am 15
mph
1005mb 48f
5:50am 17 30 mph 1005mb 48f
4:50am 20 32 mph 1005mb 48f
3:50am 27 47 mph 1004mb 52f
2:50am 25 50 mph 1004mb 52f
1:50am 21 44 mph 1003mb 52f
12:50am 21 43 mph 1003mb 52f
Wed 01/17 11:50pm 25 54 mph 1004mb 50f
10:50pm 30 55 mph 1004mb 50f
9:50pm 28 52 mph 1006mb 50f
8:50pm 30 55 mph 1007mb 50f
7:50pm 25 43 mph 1009mb 48f
6:50pm 16 33 mph 1011mb 48f
5:50pm 15 33 mph 1012mb 46f
4:50pm 15 30 mph 1013mb 46f
3:50pm 15 29 mph 1014mb 46f
2:50pm 20 33 mph 1015mb 45f
1:50pm 17 30 mph 1015mb 46f
12:50pm 17 36 mph 1016mb 45f
11:50am 22 46 mph 1016mb 43f
10:50am 16
mph
1015mb 46f
9:50am 18 38 mph 1015mb 45f
8:50am 21 35 mph 1014mb 43f
7:50am 18 30 mph 1013mb 43f
6:50am 23 44 mph 1012mb 41f
5:50am 17 35 mph 1011mb 43f
4:50am 18 33 mph 1010mb 41f
3:50am 25 44 mph 1009mb 41f
2:50am 25 40 mph 1008mb 41f
1:50am 27 50 mph 1007mb 39f
12:50am 23 47 mph 1006mb 41f
Tue 01/16 11:50pm 29 55 mph 1006mb 37f
10:50pm 25 47 mph 1005mb 41f
9:50pm 28 50 mph 1004mb 39f
8:50pm 30 51 mph 1003mb 41f
7:50pm 28 50 mph 1002mb 39f
6:50pm 25 44 mph 1001mb 41f
5:50pm 22 47 mph 1001mb 43f
3:50pm 23 39 mph 1001mb 43f
2:50pm 28 50 mph 1001mb 45f
1:50pm 21 38 mph 1002mb 45f
1:15pm 28 45 mph 1002mb 46f
12:50pm 29 50 mph 1002mb 46f
11:50am 24 40 mph 1003mb 46f
11:12am 21 38 mph 1004mb 46f
10:16am 25 59 mph 1004mb 43f
10:04am 23 40 mph 1004mb 46f
9:50am 18 31 mph 1003mb 45f
8:50am 21 38 mph 1003mb 45f
7:50am 20 36 mph 1002mb 45f
6:50am 21 36 mph 1002mb 45f
5:50am 21 37 mph 1001mb 46f
4:50am 25 45 mph 1001mb 46f
3:50am 24 39 mph 1001mb 46f
2:50am 20 33 mph 1001mb 48f
1:50am 25 45 mph 1000mb 50f
12:50am 25 41 mph 1001mb 50f
Mon 01/15 11:50pm 21 38 mph 1001mb 50f
10:50pm 23 41 mph 1001mb 50f
9:50pm 24 41 mph 1001mb 48f
8:50pm 25 46 mph 1001mb 50f
7:50pm 20 36 mph 1001mb 50f
6:50pm 20 35 mph 1001mb 50f
5:50pm 20 32 mph 1001mb 50f
4:50pm 20 33 mph 1001mb 48f
3:50pm 17
mph
1001mb 50f
2:50pm 18 35 mph 1001mb 50f
1:50pm 22 41 mph 1001mb 50f
12:50pm 21 38 mph 1001mb 52f
11:50am 21 35 mph 1001mb 52f
10:50am 28
mph
1001mb 52f
8:50am 16 36 mph 1001mb 50f
7:50am 17 37 mph 1001mb 50f
6:50am 16 32 mph 1002mb 50f
5:50am 15 31 mph 1004mb 50f
4:50am 21 39 mph 1004mb 50f
3:50am 30 48 mph 1005mb 50f
2:50am 29 47 mph 1007mb 50f
1:50am 29 46 mph 1008mb 48f
12:50am 32
mph
1010mb 48f
Sun 01/14 11:50pm 27
mph
1012mb 48f
10:50pm 27
mph
1013mb 48f
9:50pm 21
mph
1014mb 48f